createdAt,value
2023-03-23T16:00:32.161Z,17.14
2023-03-23T16:03:53.994Z,17.05
2023-03-23T16:06:57.290Z,17.01
2023-03-23T16:09:58.759Z,17.12
2023-03-23T16:13:00.308Z,17.10
2023-03-23T16:16:02.953Z,17.01
2023-03-23T16:19:05.576Z,16.98
2023-03-23T16:22:07.166Z,16.79
2023-03-23T16:25:09.736Z,17.06
2023-03-23T16:28:13.091Z,16.95
2023-03-23T16:31:14.722Z,17.07
2023-03-23T16:34:16.134Z,16.86
2023-03-23T16:37:18.106Z,16.96
2023-03-23T16:40:20.980Z,16.93
2023-03-23T16:43:22.497Z,16.83
2023-03-23T16:46:23.936Z,17.00
2023-03-23T16:49:25.835Z,16.92
2023-03-23T16:52:27.452Z,16.85
2023-03-23T16:55:31.245Z,16.83
2023-03-23T16:58:32.690Z,16.59
2023-03-23T17:01:34.128Z,16.88
2023-03-23T17:04:35.643Z,17.05
2023-03-23T17:07:39.275Z,16.83
2023-03-23T17:10:41.625Z,16.79
2023-03-23T17:13:43.137Z,16.82
2023-03-23T17:16:44.699Z,16.75
2023-03-23T17:19:46.207Z,16.82
2023-03-23T17:22:48.094Z,16.68
2023-03-23T17:25:50.353Z,16.72
2023-03-23T17:28:51.791Z,16.75
2023-03-23T17:31:53.497Z,16.67
2023-03-23T17:34:55.261Z,16.65
2023-03-23T17:37:57.150Z,16.59
2023-03-23T17:40:59.387Z,16.67
2023-03-23T17:44:00.984Z,16.46
2023-03-23T17:47:03.110Z,16.57
2023-03-23T17:50:11.361Z,16.57
2023-03-23T17:53:13.971Z,16.57
2023-03-23T17:56:15.791Z,16.42
2023-03-23T17:59:17.246Z,16.66
2023-03-23T18:02:19.251Z,16.77
2023-03-23T18:05:20.738Z,16.58
2023-03-23T18:08:22.178Z,16.70
2023-03-23T18:11:23.631Z,16.70
2023-03-23T18:14:25.336Z,16.31
2023-03-23T18:17:26.968Z,16.52
2023-03-23T18:20:28.417Z,16.65
2023-03-23T18:23:37.429Z,16.58
2023-03-23T18:26:42.709Z,16.26
2023-03-23T18:29:44.206Z,16.29
2023-03-23T18:32:45.972Z,16.53
2023-03-23T18:35:48.193Z,16.52
2023-03-23T18:38:50.721Z,16.59
2023-03-23T18:41:52.170Z,16.56
2023-03-23T18:44:54.843Z,16.53
2023-03-23T18:47:56.523Z,16.56
2023-03-23T18:50:59.922Z,16.37
2023-03-23T18:54:01.352Z,16.54
2023-03-23T18:57:02.915Z,16.65
2023-03-23T19:00:04.793Z,16.50
2023-03-23T19:03:06.591Z,16.44
2023-03-23T19:06:16.213Z,16.47
2023-03-23T19:09:18.799Z,16.51
2023-03-23T19:12:21.057Z,16.42
2023-03-23T19:15:24.346Z,16.40
2023-03-23T19:18:26.026Z,16.40
2023-03-23T19:21:29.827Z,16.50
2023-03-23T19:24:33.263Z,16.64
2023-03-23T19:30:47.495Z,16.52
2023-03-23T19:33:49.022Z,16.37
2023-03-23T19:36:54.373Z,16.57
2023-03-23T19:39:59.269Z,16.41
2023-03-23T19:43:02.452Z,16.60
2023-03-23T19:46:04.369Z,16.43
2023-03-23T19:49:06.281Z,16.39
2023-03-23T19:52:12.647Z,16.12
2023-03-23T19:55:15.605Z,16.31
2023-03-23T19:58:17.123Z,16.46
2023-03-23T20:01:19.084Z,16.45
2023-03-23T20:04:21.187Z,16.35
2023-03-23T20:07:25.578Z,16.09
2023-03-23T20:10:30.030Z,16.28
2023-03-23T20:13:32.442Z,16.26
2023-03-23T20:16:34.924Z,16.35
2023-03-23T20:19:37.155Z,16.02
2023-03-23T20:22:38.613Z,16.13
2023-03-23T20:25:40.256Z,16.26
2023-03-23T20:28:42.607Z,16.35
2023-03-23T20:31:46.145Z,16.26
2023-03-23T20:34:50.841Z,16.28
2023-03-23T20:37:52.625Z,16.40
2023-03-23T20:40:56.880Z,15.97
2023-03-23T20:43:59.670Z,16.27
2023-03-23T20:47:05.004Z,16.00
2023-03-23T20:50:08.665Z,15.83
2023-03-23T20:53:10.142Z,15.77
2023-03-23T20:56:11.603Z,15.92
2023-03-23T20:59:14.164Z,15.88
2023-03-23T21:02:18.076Z,15.68
2023-03-23T21:05:20.370Z,15.75
2023-03-23T21:08:22.208Z,15.61
2023-03-23T21:11:26.219Z,15.43
2023-03-23T21:14:27.763Z,15.33
2023-03-23T21:17:29.257Z,15.31
2023-03-23T21:20:30.903Z,15.25
2023-03-23T21:23:33.592Z,15.32
2023-03-23T21:26:35.527Z,15.09
2023-03-23T21:29:38.733Z,15.07
2023-03-23T21:32:40.532Z,15.08
2023-03-23T21:35:42.023Z,14.85
2023-03-23T21:38:44.540Z,15.11
2023-03-23T21:41:49.599Z,15.14
2023-03-23T21:44:51.193Z,15.02
2023-03-23T21:47:57.389Z,15.19
2023-03-23T21:51:05.825Z,15.15
2023-03-23T21:54:08.055Z,15.14
2023-03-23T21:57:09.739Z,14.74
2023-03-23T22:00:14.885Z,15.17
2023-03-23T22:03:19.069Z,15.08
2023-03-23T22:06:23.539Z,14.95
2023-03-23T22:09:25.046Z,15.20
2023-03-23T22:12:26.558Z,15.06
2023-03-23T22:15:29.387Z,15.18
2023-03-23T22:18:31.295Z,15.27
2023-03-23T22:21:32.749Z,15.22
2023-03-23T22:24:34.273Z,15.31
2023-03-23T22:27:35.713Z,15.24
2023-03-23T22:30:37.614Z,15.28
2023-03-23T22:33:39.944Z,15.18
2023-03-23T22:36:41.631Z,15.41
2023-03-23T22:39:43.041Z,15.48
2023-03-23T22:42:44.499Z,15.31
2023-03-23T22:45:46.097Z,15.43
2023-03-23T22:48:47.578Z,15.33
2023-03-23T22:51:49.004Z,15.28
2023-03-23T22:54:50.902Z,15.14
2023-03-23T22:57:52.377Z,15.21
2023-03-23T23:01:00.711Z,15.24
2023-03-23T23:04:02.888Z,15.38
2023-03-23T23:07:12.861Z,15.50
2023-03-23T23:10:14.752Z,15.37
2023-03-23T23:13:16.785Z,15.15
2023-03-23T23:16:19.433Z,15.02
2023-03-23T23:19:20.864Z,15.16
2023-03-23T23:22:22.249Z,15.32
2023-03-23T23:25:23.805Z,15.63
2023-03-23T23:28:25.463Z,15.37
2023-03-23T23:31:32.254Z,15.39
2023-03-23T23:34:34.733Z,15.66
2023-03-23T23:37:36.163Z,15.72
2023-03-23T23:40:38.811Z,15.77
2023-03-23T23:43:40.391Z,15.72
2023-03-23T23:46:41.809Z,16.02
2023-03-23T23:49:43.216Z,15.79
2023-03-23T23:52:44.764Z,15.85
2023-03-23T23:55:46.269Z,15.99
2023-03-23T23:58:48.723Z,16.19
